Time;durP1;ratioP1;P1;durP2;ratioP2;P2;SDS_P1;SDS_P2;PMS_P1;PMS_P2;Temp;Humidity;BMP_temperature;BMP_pressure;BME280_temperature;BME280_humidity;BME280_pressure;Samples;Min_cycle;Max_cycle;Signal;HPM_P1;HPM_P2
2021/07/02 00:01:12;;;;;;;3.80;3.20;;;;;;;19.51;66.75;99962.27;92600;1219;81538;-67
2021/07/02 00:03:19;;;;;;;5.50;3.60;;;;;;;19.48;66.60;99962.78;92601;1219;66479;-67
2021/07/02 00:05:27;;;;;;;5.30;3.30;;;;;;;19.45;66.74;99966.06;92607;1219;68482;-66
2021/07/02 00:07:35;;;;;;;5.40;3.20;;;;;;;19.41;66.71;99957.52;92577;1219;86699;-64
2021/07/02 00:09:46;;;;;;;6.10;3.00;;;;;;;19.39;66.79;99965.18;92582;1219;74987;-65
2021/07/02 00:11:57;;;;;;;4.40;3.40;;;;;;;19.41;66.80;99965.73;92584;1214;81541;-67
2021/07/02 00:14:06;;;;;;;5.30;3.50;;;;;;;19.42;66.79;99970.11;92566;1219;66149;-64
2021/07/02 00:16:17;;;;;;;4.90;3.30;;;;;;;19.39;66.71;99965.98;92551;1219;69440;-66
2021/07/02 00:18:24;;;;;;;4.50;3.10;;;;;;;19.37;66.82;99964.55;92552;1218;86991;-68
2021/07/02 00:20:32;;;;;;;3.60;3.20;;;;;;;19.33;66.90;99975.22;92560;1219;74498;-64
2021/07/02 00:22:40;;;;;;;5.30;3.40;;;;;;;19.31;67.00;99971.08;92559;1219;81999;-65
2021/07/02 00:24:47;;;;;;;3.10;2.80;;;;;;;19.34;67.08;99976.02;92559;1220;68246;-65
2021/07/02 00:26:58;;;;;;;4.10;3.10;;;;;;;19.32;67.30;99978.20;92582;1219;68131;-66
2021/07/02 00:29:06;;;;;;;6.70;3.60;;;;;;;19.31;67.54;99977.36;92557;1219;85908;-67
2021/07/02 00:31:13;;;;;;;4.40;3.30;;;;;;;19.29;67.65;99978.70;92615;1219;74764;-66
2021/07/02 00:33:22;;;;;;;4.50;3.70;;;;;;;19.23;67.62;99985.20;92584;1219;82032;-64
2021/07/02 00:35:30;;;;;;;3.80;3.40;;;;;;;19.19;67.76;99982.17;92590;1220;66841;-64
2021/07/02 00:37:42;;;;;;;5.00;3.10;;;;;;;19.21;67.95;99984.64;92587;1219;67767;-64
2021/07/02 00:39:49;;;;;;;4.00;2.90;;;;;;;19.18;68.21;99987.88;92584;1219;86332;-64
2021/07/02 00:41:57;;;;;;;3.20;2.90;;;;;;;19.15;68.46;99989.22;92581;1219;75256;-65
2021/07/02 00:44:05;;;;;;;3.80;3.20;;;;;;;19.15;68.28;99991.96;92561;1224;81617;-64
2021/07/02 00:46:12;;;;;;;4.90;3.10;;;;;;;19.10;68.26;99989.17;92563;1219;65489;-67
2021/07/02 00:48:20;;;;;;;4.00;3.00;;;;;;;19.10;68.29;99982.86;92602;1219;68321;-67
2021/07/02 00:50:28;;;;;;;4.80;2.90;;;;;;;19.07;68.45;99981.45;92553;1219;86252;-66
2021/07/02 00:52:36;;;;;;;3.80;3.10;;;;;;;19.07;68.52;99980.63;92582;1220;74604;-67
2021/07/02 00:54:52;;;;;;;3.40;2.90;;;;;;;19.02;68.67;99983.30;92579;1219;82293;-65
2021/07/02 00:57:01;;;;;;;5.40;3.00;;;;;;;18.97;68.89;99984.08;92502;1225;67285;-63
2021/07/02 00:59:08;;;;;;;3.30;3.00;;;;;;;18.95;68.89;99982.67;92593;1219;68354;-64
2021/07/02 01:01:19;;;;;;;3.20;2.90;;;;;;;18.92;69.13;99986.75;92430;1219;87511;-66
2021/07/02 01:03:27;;;;;;;2.80;2.60;;;;;;;18.92;69.21;99984.02;92449;1224;74251;-67
2021/07/02 01:05:35;;;;;;;3.40;2.70;;;;;;;18.93;69.32;99982.91;92554;1226;80879;-65
2021/07/02 01:07:43;;;;;;;3.50;2.60;;;;;;;18.88;69.24;99987.49;92556;1219;68463;-65
2021/07/02 01:09:55;;;;;;;5.20;2.80;;;;;;;18.91;69.36;99987.83;92528;1217;67913;-64
2021/07/02 01:12:05;;;;;;;3.60;2.90;;;;;;;18.88;69.41;99987.49;92494;1219;86661;-64
2021/07/02 01:14:15;;;;;;;3.40;2.80;;;;;;;18.85;69.71;99989.66;92448;1218;75282;-63
2021/07/02 01:16:23;;;;;;;3.10;2.80;;;;;;;18.82;69.68;99983.86;92422;1224;82487;-64
2021/07/02 01:18:31;;;;;;;5.30;2.50;;;;;;;18.80;69.91;99988.77;92577;1219;66994;-64
2021/07/02 01:20:39;;;;;;;3.40;3.10;;;;;;;18.79;70.09;99984.36;92606;1219;68238;-63
2021/07/02 01:22:50;;;;;;;4.10;3.00;;;;;;;18.78;70.22;99988.20;92607;1219;86865;-64
2021/07/02 01:24:59;;;;;;;3.70;2.70;;;;;;;18.74;70.24;99992.50;92571;1217;74304;-67
2021/07/02 01:27:08;;;;;;;3.90;3.00;;;;;;;18.73;70.40;99985.40;92521;1219;80272;-65
2021/07/02 01:29:15;;;;;;;3.70;2.80;;;;;;;18.70;70.60;99992.20;92594;1219;68822;-66
2021/07/02 01:31:23;;;;;;;3.00;2.70;;;;;;;18.63;70.72;99979.76;92565;1219;69061;-68
2021/07/02 01:33:31;;;;;;;3.90;2.80;;;;;;;18.62;70.95;99984.40;92582;1219;86831;-65
2021/07/02 01:35:38;;;;;;;2.90;2.70;;;;;;;18.62;71.02;99987.13;92615;1226;75580;-64
2021/07/02 01:37:46;;;;;;;3.80;3.10;;;;;;;18.62;71.23;99980.86;92578;1220;81731;-64
2021/07/02 01:39:54;;;;;;;3.60;2.80;;;;;;;18.63;71.02;99985.23;92594;1219;68398;-64
2021/07/02 01:42:01;;;;;;;3.00;2.70;;;;;;;18.60;71.17;99985.73;92553;1219;68836;-65
2021/07/02 01:44:09;;;;;;;3.60;3.00;;;;;;;18.58;71.05;99983.27;92466;1219;86551;-65
2021/07/02 01:46:20;;;;;;;3.70;3.00;;;;;;;18.56;71.46;99992.80;92595;1219;74542;-67
2021/07/02 01:48:28;;;;;;;3.30;3.00;;;;;;;18.51;71.55;99988.09;92586;1219;81733;-66
2021/07/02 01:50:35;;;;;;;3.50;3.00;;;;;;;18.43;71.78;99990.39;92596;1219;66766;-65
2021/07/02 01:52:43;;;;;;;5.20;2.50;;;;;;;18.41;71.80;99985.16;92566;1224;68270;-64
2021/07/02 01:54:51;;;;;;;5.10;3.20;;;;;;;18.42;71.66;99992.29;92575;1218;86842;-63
2021/07/02 01:56:59;;;;;;;3.60;2.70;;;;;;;18.36;72.02;99987.81;92567;1221;73688;-62
2021/07/02 01:59:07;;;;;;;4.60;2.80;;;;;;;18.37;72.00;99989.48;92568;1224;81412;-62
2021/07/02 02:01:17;;;;;;;3.90;2.90;;;;;;;18.39;72.16;99992.78;92549;1212;67274;-62
2021/07/02 02:03:25;;;;;;;3.60;3.20;;;;;;;18.34;72.32;99997.35;92561;1219;67762;-62
2021/07/02 02:05:32;;;;;;;3.20;2.80;;;;;;;18.28;72.38;100002.75;92551;1219;86322;-63
2021/07/02 02:07:40;;;;;;;4.60;2.80;;;;;;;18.27;72.49;100002.97;92547;1219;74725;-61
2021/07/02 02:09:48;;;;;;;3.70;2.60;;;;;;;18.23;72.69;100002.67;92419;1219;81419;-59
2021/07/02 02:11:58;;;;;;;3.00;2.70;;;;;;;18.18;72.88;99999.82;92546;1219;66966;-59
2021/07/02 02:14:10;;;;;;;4.60;3.00;;;;;;;18.17;72.90;99998.19;92487;1219;70724;-57
2021/07/02 02:16:18;;;;;;;3.40;2.80;;;;;;;18.15;72.93;100005.81;92535;1219;87138;-62
2021/07/02 02:18:26;;;;;;;3.50;2.90;;;;;;;18.06;73.17;100010.03;92461;1218;75302;-62
2021/07/02 02:20:33;;;;;;;3.60;2.60;;;;;;;17.99;73.32;100012.08;92582;1219;81675;-62
2021/07/02 02:22:41;;;;;;;4.90;3.00;;;;;;;17.92;73.61;100010.58;92560;1219;69658;-63
2021/07/02 02:24:49;;;;;;;3.60;2.60;;;;;;;17.87;73.82;100003.13;92485;1218;68895;-58
2021/07/02 02:26:57;;;;;;;3.70;2.50;;;;;;;17.90;73.79;100012.73;92594;1219;86528;-58
2021/07/02 02:29:04;;;;;;;4.00;2.90;;;;;;;17.91;74.19;100006.21;92605;1219;74770;-57
2021/07/02 02:31:12;;;;;;;4.50;2.60;;;;;;;17.89;74.06;100011.91;92582;1219;81384;-61
2021/07/02 02:33:20;;;;;;;2.60;2.30;;;;;;;17.94;74.09;100014.72;92574;1219;67849;-62
2021/07/02 02:35:30;;;;;;;3.80;2.60;;;;;;;17.98;74.07;100010.44;92582;1212;68103;-62
2021/07/02 02:37:38;;;;;;;4.10;2.70;;;;;;;17.98;74.22;100009.60;92543;1219;86801;-63
2021/07/02 02:39:46;;;;;;;3.00;2.60;;;;;;;18.00;74.12;100010.17;92554;1219;74500;-61
2021/07/02 02:41:57;;;;;;;3.90;2.60;;;;;;;17.93;74.34;100017.72;92433;1219;81085;-63
2021/07/02 02:44:05;;;;;;;5.20;2.90;;;;;;;17.86;74.44;100011.56;92565;1214;67598;-64
2021/07/02 02:46:13;;;;;;;3.00;2.40;;;;;;;17.80;74.48;100007.10;92556;1219;69435;-57
2021/07/02 02:48:24;;;;;;;4.30;2.80;;;;;;;17.76;74.68;99995.83;92570;1220;86381;-57
2021/07/02 02:50:32;;;;;;;4.30;2.60;;;;;;;17.71;74.90;100003.94;92561;1224;75484;-58
2021/07/02 02:52:39;;;;;;;5.70;2.90;;;;;;;17.67;74.99;99995.39;92566;1219;82036;-56
2021/07/02 02:54:47;;;;;;;4.70;3.00;;;;;;;17.67;74.99;100000.02;92530;1219;68867;-63
2021/07/02 02:57:07;;;;;;;4.50;2.80;;;;;;;17.62;75.12;99994.47;92588;1218;68904;-58
2021/07/02 02:59:15;;;;;;;4.80;2.40;;;;;;;17.61;75.36;99998.27;92597;1224;86399;-58
2021/07/02 03:01:22;;;;;;;4.40;3.20;;;;;;;17.60;75.38;99988.43;92602;1219;73590;-68
2021/07/02 03:03:30;;;;;;;3.10;2.80;;;;;;;17.60;75.44;99996.63;92576;1219;80112;-67
2021/07/02 03:05:38;;;;;;;4.50;2.70;;;;;;;17.59;75.55;99992.22;92583;1219;66553;-57
2021/07/02 03:07:46;;;;;;;3.50;2.70;;;;;;;17.62;75.68;99991.73;92602;1219;68692;-59
2021/07/02 03:09:54;;;;;;;3.50;2.70;;;;;;;17.59;75.84;99989.49;92448;1218;87573;-58
2021/07/02 03:12:02;;;;;;;4.20;2.90;;;;;;;17.60;75.76;99992.00;92595;1219;73708;-59
2021/07/02 03:14:10;;;;;;;4.30;2.90;;;;;;;17.65;75.86;99994.82;92599;1219;81876;-60
2021/07/02 03:16:21;;;;;;;5.50;3.20;;;;;;;17.67;75.92;99989.09;92535;1219;66738;-67
2021/07/02 03:18:28;;;;;;;3.70;3.30;;;;;;;17.67;75.88;99991.83;92582;1213;69118;-66
2021/07/02 03:20:36;;;;;;;3.50;2.90;;;;;;;17.68;75.95;99997.06;92434;1224;87237;-66
2021/07/02 03:22:45;;;;;;;3.80;3.30;;;;;;;17.77;75.92;99997.50;92573;1219;73993;-66
2021/07/02 03:24:52;;;;;;;3.50;3.20;;;;;;;17.74;75.85;99994.42;92560;1219;80366;-66
2021/07/02 03:27:00;;;;;;;4.10;3.10;;;;;;;17.78;75.94;99993.67;92570;1213;66576;-66
2021/07/02 03:29:08;;;;;;;5.00;3.80;;;;;;;17.75;75.88;99993.33;92566;1218;68318;-67
2021/07/02 03:31:18;;;;;;;6.90;4.00;;;;;;;17.80;75.67;100002.44;92544;1219;86499;-66
2021/07/02 03:33:29;;;;;;;4.30;3.50;;;;;;;17.75;75.84;100002.36;92449;1218;74245;-67
2021/07/02 03:35:40;;;;;;;4.00;3.20;;;;;;;17.71;75.84;99998.47;92563;1219;81516;-66
2021/07/02 03:37:48;;;;;;;4.70;3.50;;;;;;;17.73;75.93;99993.58;92550;1219;67756;-66
2021/07/02 03:39:59;;;;;;;4.50;3.20;;;;;;;17.74;75.91;99989.79;92588;1219;68757;-58
2021/07/02 03:42:08;;;;;;;4.40;3.50;;;;;;;17.69;76.15;99998.70;92556;1219;86487;-58
2021/07/02 03:44:18;;;;;;;4.10;3.50;;;;;;;17.73;76.25;99996.31;92616;1219;74346;-58
2021/07/02 03:46:26;;;;;;;4.20;3.70;;;;;;;17.75;76.26;99996.05;92419;1218;81493;-66
2021/07/02 03:48:34;;;;;;;4.00;3.60;;;;;;;17.75;76.17;99999.63;92607;1219;67707;-67
2021/07/02 03:50:41;;;;;;;4.20;3.80;;;;;;;17.73;76.20;99995.48;92588;1219;69238;-67
2021/07/02 03:52:49;;;;;;;5.50;4.30;;;;;;;17.68;76.28;100002.53;92431;1219;85294;-66
2021/07/02 03:54:57;;;;;;;4.80;4.10;;;;;;;17.66;76.52;100003.84;92590;1219;74711;-59
2021/07/02 03:57:12;;;;;;;5.90;3.90;;;;;;;17.70;76.26;100002.27;92630;1219;81169;-58
2021/07/02 03:59:20;;;;;;;5.90;3.90;;;;;;;17.78;76.33;100006.50;92579;1225;67036;-59
2021/07/02 04:01:30;;;;;;;4.40;4.00;;;;;;;17.80;76.38;100007.91;92606;1219;68976;-67
2021/07/02 04:03:38;;;;;;;5.10;3.90;;;;;;;17.80;76.38;99994.24;92586;1219;86870;-66
2021/07/02 04:05:46;;;;;;;4.70;4.30;;;;;;;17.83;76.46;99996.48;92587;1219;74746;-58
2021/07/02 04:07:57;;;;;;;8.50;4.20;;;;;;;17.87;76.47;99994.94;92571;1212;81376;-58
2021/07/02 04:10:05;;;;;;;5.30;4.30;;;;;;;17.93;76.45;99987.66;92546;1219;68349;-62
2021/07/02 04:12:14;;;;;;;4.90;4.30;;;;;;;17.94;76.47;99987.39;92573;1219;69134;-58
2021/07/02 04:14:24;;;;;;;4.50;4.10;;;;;;;18.05;76.54;99991.95;92611;1219;86921;-59
2021/07/02 04:16:36;;;;;;;6.40;4.50;;;;;;;18.12;76.49;99989.91;92605;1219;75394;-58
2021/07/02 04:18:46;;;;;;;4.90;4.40;;;;;;;18.16;76.56;99992.95;92574;1219;80293;-60
2021/07/02 04:20:55;;;;;;;5.80;5.10;;;;;;;18.17;76.52;99997.35;92549;1219;68295;-67
2021/07/02 04:23:02;;;;;;;4.60;4.20;;;;;;;18.25;76.58;100000.50;92628;1213;68436;-67
2021/07/02 04:25:13;;;;;;;4.90;4.50;;;;;;;18.28;76.74;100000.01;92606;1220;86785;-67
2021/07/02 04:27:21;;;;;;;4.80;4.40;;;;;;;18.29;76.63;99996.17;92591;1218;73612;-68
2021/07/02 04:29:31;;;;;;;5.70;4.90;;;;;;;18.38;76.50;99987.55;92574;1219;81959;-68
2021/07/02 04:31:42;;;;;;;6.50;5.20;;;;;;;18.40;76.43;99994.45;92583;1219;65491;-59
2021/07/02 04:33:49;;;;;;;5.10;4.60;;;;;;;18.47;76.27;99989.63;92574;1219;68063;-59
2021/07/02 04:35:57;;;;;;;5.90;5.40;;;;;;;18.43;76.17;99993.92;92612;1216;85352;-59
2021/07/02 04:38:05;;;;;;;5.80;5.20;;;;;;;18.49;76.00;99998.44;92457;1218;73714;-60
2021/07/02 04:40:15;;;;;;;5.70;5.10;;;;;;;18.49;75.91;99995.70;92578;1219;81900;-68
2021/07/02 04:42:22;;;;;;;6.10;5.40;;;;;;;18.47;76.09;99994.27;92602;1219;66704;-66
2021/07/02 04:44:30;;;;;;;5.50;5.00;;;;;;;18.45;76.11;99993.70;92599;1219;70287;-66
2021/07/02 04:46:41;;;;;;;5.50;5.00;;;;;;;18.48;75.94;99994.06;92575;1224;86241;-67
2021/07/02 04:48:48;;;;;;;6.10;5.50;;;;;;;18.44;75.86;100006.54;92599;1219;75191;-66
2021/07/02 04:50:56;;;;;;;6.00;5.30;;;;;;;18.50;75.83;100012.95;92556;1219;80017;-58
2021/07/02 04:53:03;;;;;;;6.10;5.40;;;;;;;18.59;75.82;100016.92;92570;1219;65188;-57
2021/07/02 04:55:14;;;;;;;6.00;5.40;;;;;;;18.66;75.61;100015.66;92412;1219;68832;-57
2021/07/02 04:57:21;;;;;;;6.20;5.70;;;;;;;18.69;75.43;100014.33;92617;1220;85020;-58
2021/07/02 04:59:32;;;;;;;6.60;5.70;;;;;;;18.73;75.49;100018.23;92603;1219;75002;-58
2021/07/02 05:01:40;;;;;;;6.20;5.60;;;;;;;18.71;75.52;100023.94;92533;1219;80573;-66
2021/07/02 05:03:48;;;;;;;6.70;5.40;;;;;;;18.74;75.50;100030.81;92576;1219;68268;-68
2021/07/02 05:05:55;;;;;;;6.20;5.60;;;;;;;18.75;75.48;100033.32;92574;1219;68566;-67
2021/07/02 05:08:03;;;;;;;6.10;5.60;;;;;;;18.78;75.69;100041.03;92592;1219;87942;-67
2021/07/02 05:10:15;;;;;;;8.10;5.60;;;;;;;18.91;75.45;100045.30;92666;1213;74000;-68
2021/07/02 05:12:23;;;;;;;6.00;5.40;;;;;;;18.94;75.48;100039.33;92593;1219;80914;-68
2021/07/02 05:14:31;;;;;;;6.00;5.40;;;;;;;18.98;75.46;100040.47;92612;1219;67817;-66
2021/07/02 05:16:41;;;;;;;8.20;5.60;;;;;;;19.01;75.53;100041.90;92574;1218;68881;-69
2021/07/02 05:18:49;;;;;;;5.90;5.30;;;;;;;19.06;75.33;100044.70;92586;1218;85983;-68
2021/07/02 05:20:56;;;;;;;6.20;5.70;;;;;;;19.08;75.23;100043.36;92577;1217;74869;-67
2021/07/02 05:23:04;;;;;;;6.40;5.80;;;;;;;19.18;74.97;100040.75;92586;1219;81174;-69
2021/07/02 05:25:15;;;;;;;6.30;5.70;;;;;;;19.25;74.77;100037.84;92574;1223;67590;-59
2021/07/02 05:27:22;;;;;;;6.70;6.10;;;;;;;19.36;74.81;100045.93;92615;1219;68813;-60
2021/07/02 05:29:30;;;;;;;6.70;6.10;;;;;;;19.52;74.63;100043.39;92588;1226;85443;-60
2021/07/02 05:31:38;;;;;;;6.50;5.90;;;;;;;19.65;74.67;100042.98;92588;1219;74969;-58
2021/07/02 05:33:49;;;;;;;6.60;6.00;;;;;;;19.92;74.67;100039.17;92586;1213;80906;-58
2021/07/02 05:35:56;;;;;;;7.10;6.40;;;;;;;20.18;74.06;100040.25;92550;1217;65564;-59
2021/07/02 05:38:05;;;;;;;6.90;6.10;;;;;;;20.23;74.03;100043.03;92585;1220;68997;-59
2021/07/02 05:40:17;;;;;;;9.20;6.00;;;;;;;20.24;73.51;100047.48;92557;1219;85871;-59
2021/07/02 05:42:26;;;;;;;5.90;5.40;;;;;;;20.27;73.43;100046.92;92586;1219;75326;-59
2021/07/02 05:44:33;;;;;;;6.40;5.80;;;;;;;20.22;73.27;100052.34;92593;1219;81853;-59
2021/07/02 05:46:41;;;;;;;6.30;5.70;;;;;;;20.20;72.99;100046.30;92551;1219;68795;-66
2021/07/02 05:48:49;;;;;;;5.80;5.20;;;;;;;20.11;73.08;100047.84;92592;1219;69299;-67
2021/07/02 05:50:57;;;;;;;5.80;5.30;;;;;;;19.96;73.08;100051.30;92582;1219;86030;-58
2021/07/02 05:53:07;;;;;;;6.70;5.70;;;;;;;19.89;72.94;100049.82;92596;1219;74908;-59
2021/07/02 05:55:15;;;;;;;5.80;5.30;;;;;;;19.78;72.86;100053.54;92584;1219;82197;-67
2021/07/02 05:57:23;;;;;;;6.50;5.80;;;;;;;19.75;72.91;100056.83;92572;1219;67108;-68
2021/07/02 05:59:33;;;;;;;6.70;6.10;;;;;;;19.71;72.67;100052.93;92591;1219;69840;-69
2021/07/02 06:01:41;;;;;;;6.20;5.70;;;;;;;19.69;73.01;100052.36;92583;1219;86234;-67
2021/07/02 06:03:49;;;;;;;6.10;5.50;;;;;;;19.69;72.87;100057.84;92580;1219;74142;-68
2021/07/02 06:06:00;;;;;;;6.10;5.50;;;;;;;19.70;72.83;100051.27;92538;1218;81547;-67
2021/07/02 06:08:11;;;;;;;6.30;5.80;;;;;;;19.62;72.92;100054.45;92576;1226;67886;-67
2021/07/02 06:10:22;;;;;;;6.30;5.70;;;;;;;19.57;73.17;100052.50;92594;1219;69384;-58
2021/07/02 06:12:30;;;;;;;7.00;6.30;;;;;;;19.59;72.67;100058.55;92573;1220;85951;-59
2021/07/02 06:14:38;;;;;;;5.90;5.30;;;;;;;19.56;72.57;100050.83;92559;1225;75364;-60
2021/07/02 06:16:45;;;;;;;6.40;5.50;;;;;;;19.54;72.85;100050.27;92412;1219;81081;-58
2021/07/02 06:18:53;;;;;;;6.20;5.60;;;;;;;19.59;73.03;100054.97;92559;1213;68754;-59
2021/07/02 06:21:01;;;;;;;6.40;5.80;;;;;;;19.64;72.91;100060.53;92615;1219;67909;-60
2021/07/02 06:23:09;;;;;;;6.60;6.00;;;;;;;19.59;72.82;100055.80;92440;1219;87311;-57
2021/07/02 06:25:17;;;;;;;7.30;6.30;;;;;;;19.55;72.96;100053.84;92591;1214;74575;-66
2021/07/02 06:27:26;;;;;;;7.00;6.30;;;;;;;19.70;72.94;100054.00;92620;1213;80331;-66
2021/07/02 06:29:34;;;;;;;6.90;6.30;;;;;;;19.83;72.98;100051.68;92580;1219;67649;-65
2021/07/02 06:31:47;;;;;;;6.70;6.10;;;;;;;19.91;72.92;100053.95;92567;1219;68349;-66
2021/07/02 06:33:55;;;;;;;7.70;6.00;;;;;;;19.91;72.86;100058.64;92589;1226;86630;-67
2021/07/02 06:36:03;;;;;;;8.30;6.20;;;;;;;19.92;72.64;100058.37;92450;1218;75054;-59
2021/07/02 06:38:13;;;;;;;7.30;6.60;;;;;;;19.96;72.78;100061.43;92597;1218;80116;-57
2021/07/02 06:40:22;;;;;;;7.20;6.50;;;;;;;19.89;72.33;100067.11;92441;1219;66439;-66
2021/07/02 06:42:30;;;;;;;7.30;6.30;;;;;;;19.89;72.30;100067.11;92590;1219;67913;-67
2021/07/02 06:44:41;;;;;;;7.60;6.90;;;;;;;19.87;72.53;100071.19;92567;1226;87273;-67
2021/07/02 06:46:49;;;;;;;7.40;6.60;;;;;;;19.87;72.43;100072.03;92595;1219;74749;-66
2021/07/02 06:48:57;;;;;;;7.90;7.10;;;;;;;19.91;72.54;100070.41;92591;1219;82218;-67
2021/07/02 06:51:04;;;;;;;9.10;8.30;;;;;;;19.94;72.46;100063.61;92455;1216;65857;-60
2021/07/02 06:53:13;;;;;;;8.20;7.50;;;;;;;19.99;72.41;100066.40;92604;1219;69727;-60
2021/07/02 06:55:22;;;;;;;9.50;8.50;;;;;;;20.06;72.61;100067.00;92568;1219;86628;-59
2021/07/02 06:57:29;;;;;;;8.80;8.00;;;;;;;20.13;72.57;100075.87;92615;1219;75615;-59
2021/07/02 06:59:39;;;;;;;9.00;8.10;;;;;;;20.36;72.66;100071.97;92574;1226;80086;-58
2021/07/02 07:01:47;;;;;;;9.50;8.60;;;;;;;20.53;72.19;100065.27;92445;1226;68276;-59
2021/07/02 07:03:55;;;;;;;10.90;9.90;;;;;;;20.68;71.96;100063.74;92618;1213;68620;-59
2021/07/02 07:06:03;;;;;;;10.90;9.80;;;;;;;20.74;71.67;100063.49;92565;1219;86637;-71
2021/07/02 07:08:11;;;;;;;11.50;10.40;;;;;;;20.74;71.44;100062.70;92594;1219;74862;-72
2021/07/02 07:10:22;;;;;;;12.30;11.20;;;;;;;20.65;71.17;100065.09;92562;1219;82010;-71
2021/07/02 07:12:29;;;;;;;13.00;11.80;;;;;;;20.56;71.12;100053.77;92594;1219;65964;-69
2021/07/02 07:14:41;;;;;;;13.20;12.00;;;;;;;20.51;71.00;100056.48;92609;1219;69527;-69
2021/07/02 07:16:48;;;;;;;14.40;13.10;;;;;;;20.40;71.13;100052.00;92452;1219;86115;-64
2021/07/02 07:18:56;;;;;;;14.40;13.10;;;;;;;20.40;71.21;100052.00;92603;1219;75667;-66
2021/07/02 07:21:04;;;;;;;15.50;14.10;;;;;;;20.42;71.09;100046.23;92571;1218;80004;-71
2021/07/02 07:23:12;;;;;;;16.60;14.90;;;;;;;20.47;70.92;100046.27;92607;1219;67706;-70
2021/07/02 07:25:24;;;;;;;18.40;16.60;;;;;;;20.47;71.07;100051.77;92594;1226;69718;-71
2021/07/02 07:27:32;;;;;;;17.00;15.40;;;;;;;20.50;70.76;100051.23;92591;1224;86563;-67
2021/07/02 07:29:40;;;;;;;18.50;16.80;;;;;;;20.62;70.76;100042.83;92417;1218;78625;-65
2021/07/02 07:31:49;;;;;;;18.50;16.60;;;;;;;20.66;70.73;100043.97;92632;1219;81480;-60
2021/07/02 07:33:58;;;;;;;17.00;15.50;;;;;;;20.64;70.39;100046.96;92623;1212;68472;-60
2021/07/02 07:36:14;;;;;;;19.80;17.80;;;;;;;20.69;70.52;100048.91;92620;1219;69223;-61
2021/07/02 07:38:25;;;;;;;19.60;17.70;;;;;;;20.75;70.19;100040.45;92559;1219;86903;-61
2021/07/02 07:40:34;;;;;;;21.50;19.40;;;;;;;20.86;70.06;100044.09;92448;1218;76374;-61
2021/07/02 07:42:41;;;;;;;19.80;17.80;;;;;;;20.97;70.16;100045.80;92438;1218;81927;-61
2021/07/02 07:44:49;;;;;;;20.60;18.50;;;;;;;21.01;69.99;100042.25;92610;1224;65841;-67
2021/07/02 07:46:57;;;;;;;20.70;18.60;;;;;;;21.03;69.80;100039.25;92559;1219;69546;-66
2021/07/02 07:49:05;;;;;;;21.90;19.50;;;;;;;20.99;69.56;100038.95;92552;1219;86652;-66
2021/07/02 07:51:19;;;;;;;20.90;18.80;;;;;;;21.01;69.69;100027.71;92518;1226;76356;-61
2021/07/02 07:53:29;;;;;;;20.40;18.10;;;;;;;21.21;69.76;100026.99;92475;1219;81659;-60
2021/07/02 07:55:37;;;;;;;21.60;19.50;;;;;;;21.44;69.39;100027.39;92561;1219;65545;-66
2021/07/02 07:57:45;;;;;;;21.20;19.10;;;;;;;21.80;69.38;100027.48;92546;1218;68326;-66
2021/07/02 07:59:53;;;;;;;20.70;18.70;;;;;;;22.10;68.79;100016.56;92568;1219;87214;-60
2021/07/02 08:02:01;;;;;;;21.00;18.70;;;;;;;22.31;68.41;100020.96;92577;1213;75612;-61
2021/07/02 08:04:09;;;;;;;21.50;19.40;;;;;;;22.86;68.33;100009.92;92535;1218;80610;-60
2021/07/02 08:06:20;;;;;;;18.80;16.80;;;;;;;23.36;67.65;100024.63;92556;1219;66516;-62
2021/07/02 08:08:28;;;;;;;19.70;17.60;;;;;;;23.73;66.73;100029.73;92574;1218;69740;-61
2021/07/02 08:10:39;;;;;;;19.10;17.10;;;;;;;23.82;65.84;100023.31;92569;1219;86932;-65
2021/07/02 08:12:47;;;;;;;17.90;16.00;;;;;;;23.76;65.63;100023.65;92621;1219;74446;-66
2021/07/02 08:14:55;;;;;;;17.70;16.10;;;;;;;23.60;65.15;100033.92;92579;1220;80581;-65
2021/07/02 08:17:03;;;;;;;17.70;16.20;;;;;;;23.33;64.63;100027.95;92540;1224;65710;-66
2021/07/02 08:19:11;;;;;;;18.00;16.40;;;;;;;23.12;64.55;100023.63;92622;1219;68052;-66
2021/07/02 08:21:18;;;;;;;16.70;15.00;;;;;;;22.82;64.23;100030.88;92436;1219;87484;-67
2021/07/02 08:23:26;;;;;;;18.30;16.50;;;;;;;22.58;64.37;100021.49;92579;1219;76059;-67
2021/07/02 08:25:33;;;;;;;18.80;16.80;;;;;;;22.40;64.46;100024.82;92558;1219;80291;-66
2021/07/02 08:30:13;;;;;;;18.00;16.30;;;;;;;22.29;64.83;100025.92;92561;1219;68944;-65
2021/07/02 08:32:21;;;;;;;17.10;15.40;;;;;;;22.19;64.64;100035.02;92579;1219;85926;-66
2021/07/02 08:34:29;;;;;;;18.00;16.30;;;;;;;22.09;65.45;100034.16;92572;1219;74891;-66
2021/07/02 08:36:42;;;;;;;17.50;15.70;;;;;;;21.92;65.15;100028.91;92615;1219;81763;-62
2021/07/02 08:39:01;;;;;;;16.40;14.80;;;;;;;21.67;65.61;100037.89;92612;1219;65925;-61
2021/07/02 08:41:17;;;;;;;18.30;16.50;;;;;;;21.68;65.07;100039.55;92537;1219;68748;-62
2021/07/02 08:43:31;;;;;;;17.30;15.60;;;;;;;21.62;65.18;100039.80;92571;1219;86628;-71
2021/07/02 08:45:46;;;;;;;17.60;15.90;;;;;;;21.61;65.68;100041.75;92503;1219;75658;-72
2021/07/02 08:48:04;;;;;;;16.80;15.00;;;;;;;21.56;65.79;100047.20;92629;1219;81358;-69
2021/07/02 08:50:22;;;;;;;17.00;15.40;;;;;;;21.64;65.58;100052.20;92444;1219;65479;-71
2021/07/02 08:52:40;;;;;;;16.30;14.80;;;;;;;21.65;65.74;100062.09;92535;1219;67904;-70
2021/07/02 08:54:49;;;;;;;16.70;15.10;;;;;;;21.62;65.83;100057.13;92426;1219;85112;-68
2021/07/02 08:56:57;;;;;;;16.20;14.70;;;;;;;21.76;65.61;100063.77;92593;1219;74636;-69
2021/07/02 08:59:05;;;;;;;16.00;14.50;;;;;;;21.87;65.68;100069.32;92593;1226;81076;-71
2021/07/02 09:01:43;;;;;;;16.20;14.70;;;;;;;21.95;65.26;100068.82;92606;1224;65399;-68
2021/07/02 09:03:50;;;;;;;17.20;14.90;;;;;;;21.95;65.32;100068.82;92603;1219;69812;-69
2021/07/02 09:06:13;;;;;;;16.50;14.80;;;;;;;21.93;65.53;100062.74;92591;1219;86476;-68
2021/07/02 09:08:25;;;;;;;16.30;14.70;;;;;;;21.86;65.07;100073.98;92486;1219;74858;-70
2021/07/02 09:10:38;;;;;;;15.10;13.70;;;;;;;21.84;65.11;100080.86;92560;1219;82073;-69
2021/07/02 09:12:55;;;;;;;17.10;15.30;;;;;;;21.73;64.91;100079.98;92589;1218;68424;-71
2021/07/02 09:15:10;;;;;;;16.50;14.30;;;;;;;21.65;65.07;100072.25;92630;1218;68003;-68
2021/07/02 09:17:20;;;;;;;16.10;14.50;;;;;;;21.69;64.85;100070.63;92580;1219;87446;-68
2021/07/02 09:19:30;;;;;;;15.90;14.30;;;;;;;21.85;65.33;100069.58;92559;1219;74980;-69
2021/07/02 09:21:37;;;;;;;15.10;13.70;;;;;;;22.00;65.25;100068.83;92625;1219;82771;-70
2021/07/02 09:23:45;;;;;;;15.30;13.80;;;;;;;22.11;65.30;100071.30;92430;1218;66452;-71
2021/07/02 09:25:54;;;;;;;15.40;13.90;;;;;;;22.18;65.39;100069.13;92619;1219;70427;-71
2021/07/02 09:28:05;;;;;;;16.10;14.50;;;;;;;22.40;65.05;100074.38;92598;1219;87019;-68
2021/07/02 09:30:19;;;;;;;15.30;13.90;;;;;;;22.57;64.98;100071.34;92595;1219;73909;-68
2021/07/02 09:32:28;;;;;;;17.40;15.50;;;;;;;22.59;64.88;100075.47;92641;1219;81461;-72
2021/07/02 09:34:59;;;;;;;16.60;14.90;;;;;;;22.56;64.23;100081.53;92605;1219;66790;-69
2021/07/02 09:37:26;;;;;;;17.40;15.70;;;;;;;22.49;64.17;100075.48;92664;1219;69096;-69
2021/07/02 09:39:33;;;;;;;17.40;15.80;;;;;;;22.46;64.14;100077.95;92627;1219;86462;-72
2021/07/02 09:41:41;;;;;;;16.60;14.90;;;;;;;22.57;64.06;100088.70;92598;1218;75183;-70
2021/07/02 09:44:09;;;;;;;17.70;15.90;;;;;;;22.55;63.73;100088.13;92636;1220;81390;-69
2021/07/02 09:46:30;;;;;;;18.30;16.40;;;;;;;22.54;63.93;100092.00;92621;1219;65247;-69
2021/07/02 09:48:46;;;;;;;18.50;16.80;;;;;;;22.51;63.76;100089.80;92571;1219;67522;-70
2021/07/02 09:50:59;;;;;;;17.90;16.00;;;;;;;22.48;63.79;100095.02;92602;1219;86372;-69
2021/07/02 09:53:11;;;;;;;19.10;17.20;;;;;;;22.58;63.80;100090.33;92641;1219;74699;-70
2021/07/02 09:55:21;;;;;;;18.10;16.30;;;;;;;22.54;63.81;100088.41;92494;1224;82122;-68
2021/07/02 09:57:32;;;;;;;18.10;16.20;;;;;;;22.49;63.76;100092.00;92624;1219;66397;-69
2021/07/02 09:59:40;;;;;;;18.90;17.10;;;;;;;22.34;63.85;100087.30;92584;1219;67863;-70
2021/07/02 10:01:48;;;;;;;18.40;16.60;;;;;;;22.20;63.88;100094.44;92571;1219;86595;-70
2021/07/02 10:04:07;;;;;;;19.10;17.30;;;;;;;21.97;64.19;100085.88;92437;1219;74993;-68